Time;durP1;ratioP1;P1;durP2;ratioP2;P2;SDS_P1;SDS_P2;PMS_P1;PMS_P2;Temp;Humidity;BMP_temperature;BMP_pressure;BME280_temperature;BME280_humidity;BME280_pressure;Samples;Min_cycle;Max_cycle;Signal;HPM_P1;HPM_P2
2022/04/28 00:02:48;;;;;;;;;;;;;;;;;;;;;
2022/04/28 00:13:48;;;;;;;;;;;;;;;;;;;;;
2022/04/28 00:23:48;;;;;;;;;;;;;;;;;;;;;
2022/04/28 00:34:48;;;;;;;;;;;;;;;;;;;;;
2022/04/28 00:44:48;;;;;;;;;;;;;;;;;;;;;
2022/04/28 00:54:49;;;;;;;;;;;;;;;;;;;;;
2022/04/28 01:05:48;;;;;;;;;;;;;;;;;;;;;
2022/04/28 01:16:48;;;;;;;;;;;;;;;;;;;;;
2022/04/28 01:26:48;;;;;;;;;;;;;;;;;;;;;
2022/04/28 01:37:48;;;;;;;;;;;;;;;;;;;;;
2022/04/28 01:47:48;;;;;;;;;;;;;;;;;;;;;
2022/04/28 01:58:48;;;;;;;;;;;;;;;;;;;;;
2022/04/28 02:09:48;;;;;;;;;;;;;;;;;;;;;
2022/04/28 02:19:48;;;;;;;;;;;;;;;;;;;;;
2022/04/28 02:30:48;;;;;;;;;;;;;;;;;;;;;
2022/04/28 02:41:48;;;;;;;;;;;;;;;;;;;;;
2022/04/28 02:51:48;;;;;;;;;;;;;;;;;;;;;
2022/04/28 03:01:48;;;;;;;;;;;;;;;;;;;;;
2022/04/28 03:12:48;;;;;;;;;;;;;;;;;;;;;
2022/04/28 03:22:48;;;;;;;;;;;;;;;;;;;;;
2022/04/28 03:33:48;;;;;;;;;;;;;;;;;;;;;
2022/04/28 03:44:48;;;;;;;;;;;;;;;;;;;;;
2022/04/28 03:54:48;;;;;;;;;;;;;;;;;;;;;
2022/04/28 04:05:48;;;;;;;;;;;;;;;;;;;;;
2022/04/28 04:16:48;;;;;;;;;;;;;;;;;;;;;
2022/04/28 04:27:48;;;;;;;;;;;;;;;;;;;;;
2022/04/28 04:38:48;;;;;;;;;;;;;;;;;;;;;
2022/04/28 04:49:48;;;;;;;;;;;;;;;;;;;;;
2022/04/28 04:59:48;;;;;;;;;;;;;;;;;;;;;
2022/04/28 05:09:48;;;;;;;;;;;;;;;;;;;;;
2022/04/28 05:19:48;;;;;;;;;;;;;;;;;;;;;
2022/04/28 05:30:49;;;;;;;;;;;;;;;;;;;;;
2022/04/28 05:40:48;;;;;;;;;;;;;;;;;;;;;
2022/04/28 05:51:48;;;;;;;;;;;;;;;;;;;;;
2022/04/28 06:02:48;;;;;;;;;;;;;;;;;;;;;
2022/04/28 06:12:48;;;;;;;;;;;;;;;;;;;;;
2022/04/28 06:23:48;;;;;;;;;;;;;;;;;;;;;
2022/04/28 06:33:48;;;;;;;;;;;;;;;;;;;;;
2022/04/28 06:44:48;;;;;;;;;;;;;;;;;;;;;
2022/04/28 06:55:48;;;;;;;;;;;;;;;;;;;;;
2022/04/28 07:06:48;;;;;;;;;;;;;;;-133;72.7;78830;;;;
2022/04/28 07:16:48;;;;;;;17.8;22.8;;;;;;;-133;70.7;78800;;;;
2022/04/28 07:27:48;;;;;;;17.8;22.8;;;;;;;-133;68.2;78740;;;;
2022/04/28 07:38:48;;;;;;;17.8;22.8;;;;;;;-133;66.2;78700;;;;
2022/04/28 07:48:48;;;;;;;12.3;15.5;;;;;;;-133;65.3;78660;;;;
2022/04/28 07:58:48;;;;;;;12.3;15.5;;;;;;;-133;60;78620;;;;
2022/04/28 08:08:48;;;;;;;12.3;15.5;;;;;;;-133;58.7;78570;;;;
2022/04/28 08:19:48;;;;;;;8.7;11.8;;;;;;;-133;54.2;78500;;;;
2022/04/28 08:30:48;;;;;;;8.7;11.8;;;;;;;-133;52.2;78400;;;;
2022/04/28 08:41:48;;;;;;;8.7;11.8;;;;;;;-133;49.7;78350;;;;
2022/04/28 08:52:48;;;;;;;5.7;8.8;;;;;;;-133;45.6;78300;;;;
2022/04/28 09:02:48;;;;;;;5.7;8.8;;;;;;;-133;46.7;78350;;;;
2022/04/28 09:12:48;;;;;;;5.5;8.7;;;;;;;-133;46.5;78310;;;;
2022/04/28 09:22:50;;;;;;;5.5;8.7;;;;;;;-133;47.4;78380;;;;
2022/04/28 09:33:48;;;;;;;5.5;8.7;;;;;;;-133;47;78360;;;;
2022/04/28 09:44:48;;;;;;;4.7;8.2;;;;;;;-133;45.2;78330;;;;
2022/04/28 09:54:48;;;;;;;4.7;8.2;;;;;;;-133;45.2;78290;;;;
2022/04/28 10:05:48;;;;;;;4.7;8.2;;;;;;;-133;46.5;78300;;;;
2022/04/28 10:15:48;;;;;;;5;7.7;;;;;;;-133;44.4;78140;;;;
2022/04/28 10:36:48;;;;;;;5;7.7;;;;;;;-133;38.8;78250;;;;
2022/04/28 10:46:48;;;;;;;5.3;8.9;;;;;;;-133;38.7;78260;;;;
2022/04/28 10:57:48;;;;;;;5.3;8.9;;;;;;;-133;37.7;78290;;;;
2022/04/28 11:07:48;;;;;;;5.3;8.9;;;;;;;-133;38.8;78230;;;;
2022/04/28 11:17:48;;;;;;;55.8;63.8;;;;;;;-133;37.6;78210;;;;
2022/04/28 11:27:51;;;;;;;55.8;63.8;;;;;;;-133;38.5;78160;;;;
2022/04/28 11:37:50;;;;;;;55.8;63.8;;;;;;;-133;38.4;78170;;;;
2022/04/28 11:47:49;;;;;;;7.9;12.1;;;;;;;-133;37.5;78210;;;;
2022/04/28 11:57:48;;;;;;;7.9;12.1;;;;;;;-133;38.5;78250;;;;
2022/04/28 12:07:51;;;;;;;7.9;12.1;;;;;;;-133;36.4;78140;;;;
2022/04/28 12:19:20;;;;;;;36.2;41.9;;;;;;;-133;34.5;78130;;;;
2022/04/28 12:28:48;;;;;;;36.2;41.9;;;;;;;-133;33.9;78150;;;;
2022/04/28 12:38:49;;;;;;;36.2;41.9;;;;;;;-133;36.3;78160;;;;
2022/04/28 12:48:48;;;;;;;6.4;9.9;;;;;;;-133;37.3;78200;;;;
2022/04/28 12:58:48;;;;;;;6.4;9.9;;;;;;;-133;38.5;78250;;;;
2022/04/28 13:08:51;;;;;;;6.4;9.9;;;;;;;-133;38.6;78200;;;;
2022/04/28 13:19:48;;;;;;;3.1;5;;;;;;;-133;33.5;78130;;;;
2022/04/28 13:30:49;;;;;;;3.1;5;;;;;;;-133;34.7;78040;;;;
2022/04/28 13:41:48;;;;;;;3.1;5;;;;;;;-133;35.4;78100;;;;
2022/04/28 13:52:48;;;;;;;2.3;4.6;;;;;;;-133;36.6;78050;;;;
2022/04/28 14:03:48;;;;;;;2.3;4.6;;;;;;;-133;34;78000;;;;
2022/04/28 14:14:48;;;;;;;2.4;4.9;;;;;;;-133;38.2;78140;;;;
2022/04/28 14:24:48;;;;;;;2.4;4.9;;;;;;;-133;40.8;78170;;;;
2022/04/28 14:35:48;;;;;;;2.4;4.9;;;;;;;-133;40.9;78190;;;;
2022/04/28 14:45:48;;;;;;;4.1;6.5;;;;;;;-133;41;78200;;;;
2022/04/28 14:55:49;;;;;;;4.1;6.5;;;;;;;-133;42.4;78200;;;;
2022/04/28 15:06:48;;;;;;;4.1;6.5;;;;;;;-133;40.7;78180;;;;
2022/04/28 15:17:51;;;;;;;10.4;13.9;;;;;;;-133;39.8;78200;;;;
2022/04/28 15:28:48;;;;;;;10.4;13.9;;;;;;;-133;41.4;78230;;;;
2022/04/28 15:39:48;;;;;;;10.4;13.9;;;;;;;-133;42.3;78220;;;;
2022/04/28 15:49:48;;;;;;;3.7;7.3;;;;;;;-133;38;77960;;;;
2022/04/28 16:00:48;;;;;;;3.7;7.3;;;;;;;-133;32;77650;;;;
2022/04/28 16:10:48;;;;;;;3.7;7.3;;;;;;;-133;27.8;77500;;;;
2022/04/28 16:21:48;;;;;;;3.7;7;;;;;;;-133;31.1;77750;;;;
2022/04/28 16:31:48;;;;;;;3.7;7;;;;;;;-133;32.8;77950;;;;
2022/04/28 16:41:48;;;;;;;3.7;7;;;;;;;-133;35.7;78090;;;;
2022/04/28 16:52:48;;;;;;;4.1;6.6;;;;;;;-133;37;78180;;;;
2022/04/28 17:04:24;;;;;;;4.1;6.6;;;;;;;-133;42.5;78300;;;;
2022/04/28 17:13:48;;;;;;;4.6;8.7;;;;;;;-133;44.6;78330;;;;
2022/04/28 17:24:48;;;;;;;4.6;8.7;;;;;;;-133;45.1;78370;;;;
2022/04/28 17:34:48;;;;;;;4.6;8.7;;;;;;;-133;48.1;78460;;;;
2022/04/28 17:44:49;;;;;;;3.2;5.6;;;;;;;-133;48.8;78540;;;;
2022/04/28 18:06:48;;;;;;;3.2;5.6;;;;;;;-133;54.5;78710;;;;
2022/04/28 18:17:48;;;;;;;6.7;9.7;;;;;;;-133;56.2;78790;;;;
2022/04/28 18:28:48;;;;;;;6.7;9.7;;;;;;;-133;58.2;78880;;;;
2022/04/28 18:48:48;;;;;;;7.9;12.5;;;;;;;-133;60.8;78980;;;;
2022/04/28 18:58:48;;;;;;;7.9;12.5;;;;;;;-133;63;79010;;;;
2022/04/28 19:08:48;;;;;;;7.9;12.5;;;;;;;-133;66.6;79020;;;;
2022/04/28 19:18:49;;;;;;;13.6;17.8;;;;;;;-133;65.5;79030;;;;
2022/04/28 19:28:48;;;;;;;13.6;17.8;;;;;;;-133;66.1;79040;;;;
2022/04/28 19:39:48;;;;;;;13.6;17.8;;;;;;;-133;65;79060;;;;
2022/04/28 19:49:48;;;;;;;16;19.8;;;;;;;-133;68.4;79080;;;;
2022/04/28 20:00:48;;;;;;;16;19.8;;;;;;;-133;67.3;79110;;;;
2022/04/28 20:10:48;;;;;;;16;19.8;;;;;;;-133;66.6;79130;;;;
2022/04/28 20:20:50;;;;;;;15.1;19.4;;;;;;;-133;67.1;79150;;;;
2022/04/28 20:30:48;;;;;;;15.1;19.4;;;;;;;-133;67.9;79190;;;;
2022/04/28 20:40:48;;;;;;;15.1;19.4;;;;;;;-133;68.6;79230;;;;
2022/04/28 20:50:49;;;;;;;17.1;19.8;;;;;;;-133;69.1;79270;;;;
2022/04/28 21:00:48;;;;;;;17.1;19.8;;;;;;;-133;71.1;79300;;;;
2022/04/28 21:11:48;;;;;;;17.1;19.8;;;;;;;-133;71.9;79330;;;;
2022/04/28 21:22:51;;;;;;;19.9;23;;;;;;;-133;72.5;79330;;;;
2022/04/28 21:32:48;;;;;;;19.9;23;;;;;;;-133;73;79350;;;;
2022/04/28 21:43:48;;;;;;;19.1;22.4;;;;;;;-133;74.1;79360;;;;
2022/04/28 21:53:48;;;;;;;19.1;22.4;;;;;;;-133;74.3;79370;;;;
2022/04/28 22:14:48;;;;;;;17.5;22.6;;;;;;;-133;75;79380;;;;
2022/04/28 22:24:48;;;;;;;17.5;22.6;;;;;;;-133;75.7;79370;;;;
2022/04/28 22:35:50;;;;;;;17.5;22.6;;;;;;;-133;75;79360;;;;
2022/04/28 22:46:48;;;;;;;16.8;23.6;;;;;;;-133;75.5;79340;;;;
2022/04/28 22:56:48;;;;;;;16.8;23.6;;;;;;;-133;75;79350;;;;
2022/04/28 23:06:48;;;;;;;16.8;23.6;;;;;;;-133;75.1;79370;;;;
2022/04/28 23:17:48;;;;;;;14.9;21;;;;;;;-133;76.1;79390;;;;
2022/04/28 23:28:48;;;;;;;14.9;21;;;;;;;-133;76.5;79410;;;;
2022/04/28 23:38:48;;;;;;;14.9;21;;;;;;;-133;76.9;79410;;;;
2022/04/28 23:49:48;;;;;;;15.6;20.4;;;;;;;-133;77.8;79440;;;;
2022/04/28 23:59:48;;;;;;;15.6;20.4;;;;;;;-133;78.2;79450;;;;
